PRIVATE WETTERSTATION BILLIGHEIM-ALLFELD                       ZURCK
Wetterdaten: Samstag, 30.09.2017
Datum Zeit Temp. A. Temp. A. min Temp. A. max Feuchte A. Luftdruck Regen Wind Richtung Richtung Sonnenschein ET Solar Taupunkt Windchill Windben Empfang
30.09.2017 00:00 14,0 C 14,0 C 14,1 C 89 % 1019,1 hPa 0,0 l/m 0,0 km/h (0 Bft) W 270 0 min 0,000 mm 0 W/m 12,2 C 14,0 C 1,6 km/h (1 Bft) 100 %
30.09.2017 00:10 13,9 C 13,9 C 14,0 C 89 % 1019,0 hPa 0,0 l/m 0,0 km/h (0 Bft) N 0 0 min 0,000 mm 0 W/m 12,1 C 13,9 C 0,0 km/h (0 Bft) 100 %
30.09.2017 00:20 13,8 C 13,8 C 13,9 C 89 % 1018,8 hPa 0,0 l/m 0,0 km/h (0 Bft) N 0 0 min 0,000 mm 0 W/m 12,0 C 13,8 C 0,0 km/h (0 Bft) 100 %
30.09.2017 00:30 13,6 C 13,6 C 13,8 C 89 % 1018,7 hPa 0,0 l/m 0,0 km/h (0 Bft) N 0 0 min 0,000 mm 0 W/m 11,8 C 13,6 C 0,0 km/h (0 Bft) 100 %
30.09.2017 00:40 13,5 C 13,5 C 13,6 C 89 % 1018,7 hPa 0,0 l/m 0,0 km/h (0 Bft) N 0 0 min 0,000 mm 0 W/m 11,7 C 13,5 C 0,0 km/h (0 Bft) 100 %
30.09.2017 00:50 13,4 C 13,4 C 13,5 C 89 % 1018,4 hPa 0,0 l/m 0,0 km/h (0 Bft) N 0 0 min 0,000 mm 0 W/m 11,6 C 13,4 C 0,0 km/h (0 Bft) 90 %
30.09.2017 01:00 13,3 C 13,3 C 13,4 C 89 % 1018,4 hPa 0,0 l/m 0,0 km/h (0 Bft) N 0 0 min 0,000 mm 0 W/m 11,5 C 13,3 C 0,0 km/h (0 Bft) 100 %
30.09.2017 01:10 13,3 C 13,3 C 13,3 C 89 % 1018,3 hPa 0,0 l/m 0,0 km/h (0 Bft) W-NW 292 0 min 0,000 mm 0 W/m 11,5 C 13,3 C 1,6 km/h (1 Bft) 100 %
30.09.2017 01:20 13,2 C 13,2 C 13,3 C 89 % 1018,3 hPa 0,0 l/m 0,0 km/h (0 Bft) N 0 0 min 0,000 mm 0 W/m 11,4 C 13,2 C 0,0 km/h (0 Bft) 100 %
30.09.2017 01:30 13,2 C 13,2 C 13,2 C 89 % 1018,1 hPa 0,0 l/m 0,0 km/h (0 Bft) N 0 0 min 0,000 mm 0 W/m 11,4 C 13,2 C 0,0 km/h (0 Bft) 100 %
30.09.2017 01:40 13,2 C 13,2 C 13,2 C 89 % 1018,0 hPa 0,0 l/m 0,0 km/h (0 Bft) W-NW 292 0 min 0,000 mm 0 W/m 11,4 C 13,2 C 3,2 km/h (1 Bft) 100 %
30.09.2017 01:50 13,1 C 13,1 C 13,2 C 89 % 1017,9 hPa 0,0 l/m 0,0 km/h (0 Bft) N 0 0 min 0,000 mm 0 W/m 11,3 C 13,1 C 0,0 km/h (0 Bft) 100 %
30.09.2017 02:00 12,9 C 12,9 C 13,1 C 89 % 1018,0 hPa 0,0 l/m 0,0 km/h (0 Bft) N 0 0 min 0,000 mm 0 W/m 11,1 C 12,9 C 0,0 km/h (0 Bft) 100 %
30.09.2017 02:10 12,8 C 12,8 C 13,0 C 89 % 1018,0 hPa 0,0 l/m 0,0 km/h (0 Bft) N 0 0 min 0,000 mm 0 W/m 11,0 C 12,8 C 0,0 km/h (0 Bft) 100 %
30.09.2017 02:20 12,8 C 12,8 C 12,8 C 89 % 1017,9 hPa 0,0 l/m 0,0 km/h (0 Bft) W-NW 292 0 min 0,000 mm 0 W/m 11,0 C 12,8 C 1,6 km/h (1 Bft) 100 %
30.09.2017 02:30 12,8 C 12,8 C 12,8 C 89 % 1017,7 hPa 0,0 l/m 0,0 km/h (0 Bft) N 0 0 min 0,000 mm 0 W/m 11,0 C 12,8 C 0,0 km/h (0 Bft) 100 %
30.09.2017 02:40 12,7 C 12,7 C 12,8 C 89 % 1017,7 hPa 0,0 l/m 0,0 km/h (0 Bft) W-NW 292 0 min 0,000 mm 0 W/m 10,9 C 12,7 C 3,2 km/h (1 Bft) 100 %
30.09.2017 02:50 12,6 C 12,6 C 12,7 C 89 % 1017,6 hPa 0,0 l/m 0,0 km/h (0 Bft) W-NW 292 0 min 0,000 mm 0 W/m 10,8 C 12,6 C 1,6 km/h (1 Bft) 100 %
30.09.2017 03:00 12,6 C 12,6 C 12,6 C 89 % 1017,5 hPa 0,0 l/m 0,0 km/h (0 Bft) W-NW 292 0 min 0,000 mm 0 W/m 10,8 C 12,6 C 1,6 km/h (1 Bft) 100 %
30.09.2017 03:10 12,5 C 12,5 C 12,6 C 89 % 1017,5 hPa 0,0 l/m 1,6 km/h (1 Bft) W-NW 292 0 min 0,000 mm 0 W/m 10,7 C 12,5 C 4,8 km/h (1 Bft) 100 %
30.09.2017 03:20 12,5 C 12,5 C 12,6 C 89 % 1017,4 hPa 0,0 l/m 1,6 km/h (1 Bft) NW 315 0 min 0,000 mm 0 W/m 10,7 C 12,5 C 4,8 km/h (1 Bft) 100 %
30.09.2017 03:30 12,6 C 12,5 C 12,6 C 89 % 1017,5 hPa 0,0 l/m 0,0 km/h (0 Bft) N 0 0 min 0,000 mm 0 W/m 10,8 C 12,6 C 0,0 km/h (0 Bft) 100 %
30.09.2017 03:40 12,5 C 12,5 C 12,6 C 89 % 1017,5 hPa 0,0 l/m 0,0 km/h (0 Bft) NW 315 0 min 0,000 mm 0 W/m 10,7 C 12,5 C 1,6 km/h (1 Bft) 100 %
30.09.2017 03:50 12,4 C 12,4 C 12,6 C 89 % 1017,4 hPa 0,0 l/m 0,0 km/h (0 Bft) N 0 0 min 0,000 mm 0 W/m 10,6 C 12,4 C 0,0 km/h (0 Bft) 100 %
30.09.2017 04:00 12,3 C 12,3 C 12,4 C 89 % 1017,3 hPa 0,0 l/m 0,0 km/h (0 Bft) N 0 0 min 0,000 mm 0 W/m 10,5 C 12,3 C 0,0 km/h (0 Bft) 100 %
30.09.2017 04:10 12,2 C 12,2 C 12,3 C 89 % 1017,2 hPa 0,0 l/m 0,0 km/h (0 Bft) N 0 0 min 0,000 mm 0 W/m 10,4 C 12,2 C 0,0 km/h (0 Bft) 100 %
30.09.2017 04:20 12,3 C 12,2 C 12,3 C 89 % 1017,1 hPa 0,0 l/m 0,0 km/h (0 Bft) N 0 0 min 0,000 mm 0 W/m 10,5 C 12,3 C 0,0 km/h (0 Bft) 100 %
30.09.2017 04:30 12,3 C 12,2 C 12,3 C 89 % 1017,0 hPa 0,0 l/m 0,0 km/h (0 Bft) N 0 0 min 0,000 mm 0 W/m 10,5 C 12,3 C 0,0 km/h (0 Bft) 100 %
30.09.2017 04:40 12,2 C 12,2 C 12,3 C 89 % 1016,9 hPa 0,0 l/m 0,0 km/h (0 Bft) N 0 0 min 0,000 mm 0 W/m 10,4 C 12,2 C 0,0 km/h (0 Bft) 100 %
30.09.2017 04:50 12,1 C 12,1 C 12,2 C 89 % 1016,9 hPa 0,0 l/m 0,0 km/h (0 Bft) N 0 0 min 0,000 mm 0 W/m 10,3 C 12,1 C 0,0 km/h (0 Bft) 100 %
30.09.2017 05:00 12,0 C 12,0 C 12,1 C 90 % 1016,8 hPa 0,0 l/m 0,0 km/h (0 Bft) N 0 0 min 0,000 mm 0 W/m 10,4 C 12,0 C 0,0 km/h (0 Bft) 100 %
30.09.2017 05:10 12,0 C 12,0 C 12,0 C 90 % 1016,7 hPa 0,0 l/m 0,0 km/h (0 Bft) N 0 0 min 0,000 mm 0 W/m 10,4 C 12,0 C 0,0 km/h (0 Bft) 99 %
30.09.2017 05:20 12,1 C 12,0 C 12,1 C 90 % 1016,5 hPa 0,0 l/m 0,0 km/h (0 Bft) N 0 0 min 0,000 mm 0 W/m 10,5 C 12,1 C 0,0 km/h (0 Bft) 99 %
30.09.2017 05:30 12,1 C 12,1 C 12,1 C 90 % 1016,4 hPa 0,0 l/m 0,0 km/h (0 Bft) N 0 0 min 0,000 mm 0 W/m 10,5 C 12,1 C 0,0 km/h (0 Bft) 100 %
30.09.2017 05:40 12,1 C 12,1 C 12,1 C 90 % 1016,6 hPa 0,0 l/m 0,0 km/h (0 Bft) N 0 0 min 0,000 mm 0 W/m 10,5 C 12,1 C 0,0 km/h (0 Bft) 98 %
30.09.2017 05:50 12,1 C 12,1 C 12,1 C 90 % 1016,6 hPa 0,0 l/m 0,0 km/h (0 Bft) N 0 0 min 0,000 mm 0 W/m 10,5 C 12,1 C 0,0 km/h (0 Bft) 98 %
30.09.2017 06:00 12,2 C 12,1 C 12,2 C 90 % 1016,6 hPa 0,0 l/m 0,0 km/h (0 Bft) N 0 0 min 0,000 mm 0 W/m 10,6 C 12,2 C 0,0 km/h (0 Bft) 97 %
30.09.2017 06:10 12,3 C 12,2 C 12,3 C 90 % 1016,6 hPa 0,0 l/m 0,0 km/h (0 Bft) N 0 0 min 0,000 mm 0 W/m 10,7 C 12,3 C 0,0 km/h (0 Bft) 98 %
30.09.2017 06:20 12,3 C 12,3 C 12,3 C 90 % 1016,5 hPa 0,0 l/m 0,0 km/h (0 Bft) N 0 0 min 0,000 mm 0 W/m 10,7 C 12,3 C 0,0 km/h (0 Bft) 97 %
30.09.2017 06:30 12,3 C 12,3 C 12,4 C 90 % 1016,2 hPa 0,0 l/m 0,0 km/h (0 Bft) N 0 0 min 0,000 mm 0 W/m 10,7 C 12,3 C 0,0 km/h (0 Bft) 98 %
30.09.2017 06:40 12,4 C 12,3 C 12,4 C 90 % 1016,1 hPa 0,0 l/m 0,0 km/h (0 Bft) N 0 0 min 0,000 mm 0 W/m 10,8 C 12,4 C 0,0 km/h (0 Bft) 97 %
30.09.2017 06:50 12,3 C 12,3 C 12,4 C 90 % 1016,1 hPa 0,0 l/m 0,0 km/h (0 Bft) N 0 0 min 0,000 mm 0 W/m 10,7 C 12,3 C 0,0 km/h (0 Bft) 98 %
30.09.2017 07:00 12,3 C 12,3 C 12,4 C 90 % 1016,0 hPa 0,0 l/m 0,0 km/h (0 Bft) N 0 0 min 0,000 mm 0 W/m 10,7 C 12,3 C 0,0 km/h (0 Bft) 97 %
30.09.2017 07:10 12,2 C 12,2 C 12,3 C 90 % 1016,0 hPa 0,0 l/m 0,0 km/h (0 Bft) N 0 0 min 0,000 mm 0 W/m 10,6 C 12,2 C 0,0 km/h (0 Bft) 98 %
30.09.2017 07:20 12,1 C 12,1 C 12,2 C 90 % 1016,0 hPa 0,0 l/m 0,0 km/h (0 Bft) N 0 0 min 0,000 mm 0 W/m 10,5 C 12,1 C 0,0 km/h (0 Bft) 98 %
30.09.2017 07:30 12,1 C 12,1 C 12,1 C 90 % 1016,0 hPa 0,0 l/m 0,0 km/h (0 Bft) N 0 0 min 0,000 mm 5 W/m 10,5 C 12,1 C 0,0 km/h (0 Bft) 97 %
30.09.2017 07:40 12,2 C 12,1 C 12,2 C 90 % 1015,9 hPa 0,0 l/m 0,0 km/h (0 Bft) N 0 0 min 0,000 mm 12 W/m 10,6 C 12,2 C 0,0 km/h (0 Bft) 98 %
30.09.2017 07:50 12,2 C 12,2 C 12,3 C 90 % 1015,9 hPa 0,0 l/m 0,0 km/h (0 Bft) N 0 0 min 0,000 mm 14 W/m 10,6 C 12,2 C 0,0 km/h (0 Bft) 98 %
30.09.2017 08:00 12,3 C 12,2 C 12,3 C 90 % 1016,0 hPa 0,0 l/m 0,0 km/h (0 Bft) N 0 0 min 0,000 mm 19 W/m 10,7 C 12,3 C 0,0 km/h (0 Bft) 98 %
30.09.2017 08:10 12,3 C 12,2 C 12,3 C 90 % 1016,1 hPa 0,0 l/m 0,0 km/h (0 Bft) N 0 0 min 0,000 mm 26 W/m 10,7 C 12,3 C 0,0 km/h (0 Bft) 98 %
30.09.2017 08:20 12,3 C 12,2 C 12,3 C 90 % 1016,1 hPa 0,0 l/m 0,0 km/h (0 Bft) N 0 0 min 0,000 mm 44 W/m 10,7 C 12,3 C 0,0 km/h (0 Bft) 98 %
30.09.2017 08:30 12,5 C 12,3 C 12,5 C 90 % 1015,9 hPa 0,0 l/m 0,0 km/h (0 Bft) N 0 0 min 0,000 mm 58 W/m 10,9 C 12,5 C 0,0 km/h (0 Bft) 98 %
30.09.2017 08:40 12,7 C 12,5 C 12,7 C 90 % 1015,9 hPa 0,0 l/m 0,0 km/h (0 Bft) N 0 0 min 0,000 mm 69 W/m 11,1 C 12,7 C 0,0 km/h (0 Bft) 97 %
30.09.2017 08:50 12,8 C 12,7 C 12,8 C 90 % 1015,9 hPa 0,0 l/m 0,0 km/h (0 Bft) N 0 0 min 0,000 mm 63 W/m 11,2 C 12,8 C 0,0 km/h (0 Bft) 98 %
30.09.2017 09:00 13,0 C 12,8 C 13,0 C 90 % 1015,9 hPa 0,0 l/m 0,0 km/h (0 Bft) N 0 0 min 0,025 mm 65 W/m 11,4 C 13,0 C 0,0 km/h (0 Bft) 98 %
30.09.2017 09:10 13,2 C 13,0 C 13,2 C 90 % 1015,8 hPa 0,0 l/m 0,0 km/h (0 Bft) N 0 0 min 0,000 mm 69 W/m 11,6 C 13,2 C 0,0 km/h (0 Bft) 96 %
30.09.2017 09:20 13,3 C 13,2 C 13,3 C 90 % 1015,8 hPa 0,0 l/m 0,0 km/h (0 Bft) N 0 0 min 0,000 mm 83 W/m 11,7 C 13,3 C 0,0 km/h (0 Bft) 97 %
30.09.2017 09:30 13,4 C 13,2 C 13,4 C 90 % 1015,7 hPa 0,0 l/m 0,0 km/h (0 Bft) N 0 0 min 0,000 mm 97 W/m 11,8 C 13,4 C 0,0 km/h (0 Bft) 98 %
30.09.2017 09:40 13,6 C 13,4 C 13,6 C 90 % 1015,7 hPa 0,0 l/m 0,0 km/h (0 Bft) N 0 0 min 0,000 mm 97 W/m 12,0 C 13,6 C 0,0 km/h (0 Bft) 98 %
30.09.2017 09:50 13,9 C 13,6 C 13,9 C 90 % 1015,6 hPa 0,0 l/m 0,0 km/h (0 Bft) N 0 10 min 0,000 mm 218 W/m 12,3 C 13,9 C 0,0 km/h (0 Bft) 97 %
30.09.2017 10:00 14,3 C 13,9 C 14,3 C 90 % 1015,6 hPa 0,0 l/m 0,0 km/h (0 Bft) N 0 10 min 0,051 mm 250 W/m 12,7 C 14,3 C 0,0 km/h (0 Bft) 97 %
30.09.2017 10:10 14,6 C 14,3 C 14,6 C 90 % 1015,6 hPa 0,0 l/m 0,0 km/h (0 Bft) N 0 10 min 0,000 mm 283 W/m 13,0 C 14,6 C 0,0 km/h (0 Bft) 98 %
30.09.2017 10:20 15,1 C 14,6 C 15,1 C 90 % 1015,6 hPa 0,0 l/m 0,0 km/h (0 Bft) N 0 10 min 0,000 mm 360 W/m 13,5 C 15,1 C 0,0 km/h (0 Bft) 98 %
30.09.2017 10:30 15,8 C 15,1 C 15,8 C 90 % 1015,6 hPa 0,0 l/m 0,0 km/h (0 Bft) N 0 10 min 0,000 mm 380 W/m 14,2 C 15,8 C 0,0 km/h (0 Bft) 97 %
30.09.2017 10:40 16,6 C 15,8 C 16,6 C 90 % 1015,5 hPa 0,0 l/m 0,0 km/h (0 Bft) N 0 10 min 0,000 mm 396 W/m 15,0 C 16,6 C 0,0 km/h (0 Bft) 98 %
30.09.2017 10:50 17,2 C 16,6 C 17,2 C 89 % 1015,4 hPa 0,0 l/m 0,0 km/h (0 Bft) N 0 10 min 0,000 mm 476 W/m 15,4 C 17,2 C 0,0 km/h (0 Bft) 98 %
30.09.2017 11:00 18,0 C 17,2 C 18,0 C 88 % 1015,4 hPa 0,0 l/m 0,0 km/h (0 Bft) N 0 10 min 0,178 mm 483 W/m 16,0 C 18,0 C 0,0 km/h (0 Bft) 98 %
30.09.2017 11:10 18,7 C 18,0 C 18,7 C 87 % 1015,4 hPa 0,0 l/m 0,0 km/h (0 Bft) N 0 10 min 0,000 mm 454 W/m 16,5 C 18,7 C 0,0 km/h (0 Bft) 97 %
30.09.2017 11:20 19,2 C 18,7 C 19,3 C 80 % 1015,3 hPa 0,0 l/m 0,0 km/h (0 Bft) N 0 10 min 0,000 mm 485 W/m 15,7 C 19,2 C 0,0 km/h (0 Bft) 98 %
30.09.2017 11:30 19,4 C 19,2 C 19,5 C 79 % 1015,2 hPa 0,0 l/m 0,0 km/h (0 Bft) N 0 10 min 0,000 mm 441 W/m 15,7 C 19,4 C 0,0 km/h (0 Bft) 96 %
30.09.2017 11:40 19,4 C 19,4 C 19,6 C 76 % 1015,1 hPa 0,0 l/m 1,6 km/h (1 Bft) S 180 10 min 0,000 mm 494 W/m 15,1 C 19,4 C 9,7 km/h (2 Bft) 98 %
30.09.2017 11:50 19,5 C 19,4 C 19,6 C 78 % 1014,9 hPa 0,0 l/m 4,8 km/h (1 Bft) SO 135 10 min 0,000 mm 571 W/m 15,6 C 19,5 C 11,3 km/h (2 Bft) 98 %
30.09.2017 12:00 19,8 C 19,5 C 19,8 C 78 % 1014,8 hPa 0,0 l/m 1,6 km/h (1 Bft) S 180 10 min 0,254 mm 628 W/m 15,8 C 19,8 C 8,0 km/h (2 Bft) 98 %
30.09.2017 12:10 20,4 C 19,8 C 20,4 C 78 % 1014,7 hPa 0,0 l/m 1,6 km/h (1 Bft) S-SW 202 10 min 0,000 mm 617 W/m 16,4 C 20,4 C 11,3 km/h (2 Bft) 97 %
30.09.2017 12:20 21,1 C 20,4 C 21,1 C 76 % 1014,5 hPa 0,0 l/m 1,6 km/h (1 Bft) S-SW 202 10 min 0,000 mm 612 W/m 16,7 C 21,1 C 9,7 km/h (2 Bft) 96 %
30.09.2017 12:30 21,1 C 21,1 C 21,2 C 75 % 1014,3 hPa 0,0 l/m 1,6 km/h (1 Bft) S-SW 202 10 min 0,000 mm 629 W/m 16,5 C 21,1 C 8,0 km/h (2 Bft) 98 %
30.09.2017 12:40 21,2 C 21,1 C 21,3 C 73 % 1014,3 hPa 0,0 l/m 1,6 km/h (1 Bft) S-SO 157 10 min 0,000 mm 599 W/m 16,2 C 21,2 C 11,3 km/h (2 Bft) 98 %
30.09.2017 12:50 21,0 C 21,0 C 21,2 C 73 % 1014,3 hPa 0,0 l/m 1,6 km/h (1 Bft) S-SW 202 10 min 0,000 mm 596 W/m 16,0 C 21,0 C 11,3 km/h (2 Bft) 97 %
30.09.2017 13:00 21,3 C 21,0 C 21,3 C 74 % 1014,4 hPa 0,0 l/m 1,6 km/h (1 Bft) S-SW 202 10 min 0,330 mm 599 W/m 16,5 C 21,3 C 14,5 km/h (3 Bft) 97 %
30.09.2017 13:10 21,4 C 21,3 C 21,4 C 71 % 1014,2 hPa 0,0 l/m 1,6 km/h (1 Bft) S-SO 157 10 min 0,000 mm 601 W/m 15,9 C 21,4 C 11,3 km/h (2 Bft) 97 %
30.09.2017 13:20 21,7 C 21,4 C 21,7 C 72 % 1014,0 hPa 0,0 l/m 4,8 km/h (1 Bft) W 270 10 min 0,000 mm 601 W/m 16,4 C 21,7 C 16,1 km/h (3 Bft) 98 %
30.09.2017 13:30 21,9 C 21,7 C 21,9 C 69 % 1014,1 hPa 0,0 l/m 8,0 km/h (2 Bft) S-SW 202 10 min 0,000 mm 654 W/m 15,9 C 21,3 C 16,1 km/h (3 Bft) 96 %
30.09.2017 13:40 21,9 C 21,7 C 21,9 C 71 % 1014,1 hPa 0,0 l/m 5,1 km/h (1 Bft) W 260 10 min 0,000 mm 624 W/m 16,4 C 21,9 C 11,3 km/h (2 Bft) 100 %
30.09.2017 13:50 22,0 C 21,9 C 22,1 C 71 % 1014,0 hPa 0,0 l/m 5,1 km/h (1 Bft) SW 227 10 min 0,000 mm 267 W/m 16,5 C 22,0 C 17,7 km/h (3 Bft) 100 %
30.09.2017 14:00 22,2 C 22,0 C 22,2 C 70 % 1013,9 hPa 0,0 l/m 4,9 km/h (1 Bft) SW 224 10 min 0,330 mm 633 W/m 16,5 C 22,2 C 16,1 km/h (3 Bft) 100 %
30.09.2017 14:10 22,1 C 22,1 C 22,2 C 69 % 1013,6 hPa 0,0 l/m 3,5 km/h (1 Bft) SW 225 10 min 0,000 mm 234 W/m 16,1 C 22,1 C 9,7 km/h (2 Bft) 100 %
30.09.2017 14:20 22,0 C 21,9 C 22,1 C 72 % 1013,4 hPa 0,0 l/m 1,0 km/h (0 Bft) SW 230 10 min 0,000 mm 605 W/m 16,7 C 22,0 C 6,4 km/h (2 Bft) 100 %
30.09.2017 14:30 22,3 C 21,9 C 22,3 C 69 % 1013,3 hPa 0,0 l/m 4,2 km/h (1 Bft) W-NW 291 10 min 0,000 mm 408 W/m 16,3 C 22,3 C 19,3 km/h (3 Bft) 100 %
30.09.2017 14:40 22,5 C 22,3 C 22,5 C 69 % 1013,3 hPa 0,0 l/m 8,2 km/h (2 Bft) SW 223 10 min 0,000 mm 533 W/m 16,5 C 21,9 C 25,7 km/h (4 Bft) 100 %
30.09.2017 14:50 22,6 C 22,4 C 22,6 C 69 % 1013,3 hPa 0,0 l/m 6,9 km/h (2 Bft) W-NW 284 10 min 0,000 mm 214 W/m 16,6 C 22,4 C 14,5 km/h (3 Bft) 100 %
30.09.2017 15:00 22,7 C 22,6 C 22,7 C 68 % 1013,3 hPa 0,0 l/m 6,5 km/h (2 Bft) W-NW 289 10 min 0,280 mm 323 W/m 16,5 C 22,7 C 19,3 km/h (3 Bft) 100 %
30.09.2017 15:10 22,7 C 22,7 C 22,7 C 65 % 1013,3 hPa 0,0 l/m 8,1 km/h (2 Bft) W-SW 252 10 min 0,000 mm 218 W/m 15,8 C 22,2 C 17,7 km/h (3 Bft) 100 %
30.09.2017 15:20 22,6 C 22,6 C 22,7 C 65 % 1013,2 hPa 0,0 l/m 9,2 km/h (2 Bft) W-NW 297 10 min 0,000 mm 350 W/m 15,7 C 21,7 C 20,9 km/h (4 Bft) 100 %
30.09.2017 15:30 22,4 C 22,4 C 22,6 C 67 % 1013,2 hPa 0,0 l/m 7,6 km/h (2 Bft) W-SW 251 10 min 0,000 mm 475 W/m 16,0 C 22,0 C 17,7 km/h (3 Bft) 100 %
30.09.2017 15:40 22,2 C 22,2 C 22,4 C 67 % 1013,3 hPa 0,0 l/m 6,9 km/h (2 Bft) W 281 10 min 0,000 mm 190 W/m 15,8 C 22,0 C 17,7 km/h (3 Bft) 99 %
30.09.2017 15:50 21,8 C 21,8 C 22,2 C 69 % 1013,3 hPa 0,0 l/m 7,5 km/h (2 Bft) W-SW 255 10 min 0,000 mm 207 W/m 15,9 C 21,4 C 14,5 km/h (3 Bft) 100 %
30.09.2017 16:00 21,6 C 21,6 C 21,8 C 69 % 1013,3 hPa 0,0 l/m 7,6 km/h (2 Bft) W-SW 252 10 min 0,203 mm 178 W/m 15,7 C 21,2 C 16,1 km/h (3 Bft) 100 %
30.09.2017 16:10 21,4 C 21,4 C 21,6 C 70 % 1013,2 hPa 0,0 l/m 5,1 km/h (1 Bft) W-SW 254 0 min 0,000 mm 90 W/m 15,7 C 21,4 C 11,3 km/h (2 Bft) 100 %
30.09.2017 16:20 21,1 C 21,1 C 21,4 C 70 % 1013,3 hPa 0,0 l/m 4,3 km/h (1 Bft) W-SW 257 0 min 0,000 mm 113 W/m 15,4 C 21,1 C 9,7 km/h (2 Bft) 100 %
30.09.2017 16:30 21,1 C 21,0 C 21,1 C 72 % 1013,4 hPa 0,0 l/m 3,7 km/h (1 Bft) W-SW 257 0 min 0,000 mm 74 W/m 15,8 C 21,1 C 11,3 km/h (2 Bft) 100 %
30.09.2017 16:40 20,8 C 20,8 C 21,1 C 70 % 1013,4 hPa 0,0 l/m 5,1 km/h (1 Bft) W-NW 285 0 min 0,000 mm 65 W/m 15,1 C 20,8 C 16,1 km/h (3 Bft) 100 %
30.09.2017 16:50 20,5 C 20,5 C 20,8 C 69 % 1013,5 hPa 0,0 l/m 9,7 km/h (2 Bft) W-SW 253 0 min 0,000 mm 70 W/m 14,6 C 19,3 C 20,9 km/h (4 Bft) 100 %
30.09.2017 17:00 20,1 C 20,1 C 20,5 C 70 % 1013,6 hPa 0,0 l/m 9,9 km/h (2 Bft) W 262 0 min 0,000 mm 19 W/m 14,5 C 18,8 C 19,3 km/h (3 Bft) 100 %
30.09.2017 17:10 19,7 C 19,7 C 20,1 C 72 % 1013,7 hPa 0,0 l/m 8,5 km/h (2 Bft) SW 236 0 min 0,076 mm 16 W/m 14,5 C 18,8 C 19,3 km/h (3 Bft) 100 %
30.09.2017 17:20 19,3 C 19,3 C 19,7 C 74 % 1013,8 hPa 0,0 l/m 9,3 km/h (2 Bft) W-NW 286 0 min 0,000 mm 25 W/m 14,5 C 18,1 C 19,3 km/h (3 Bft) 100 %
30.09.2017 17:30 18,9 C 18,9 C 19,3 C 77 % 1013,8 hPa 0,0 l/m 12,2 km/h (2 Bft) W-SW 254 0 min 0,000 mm 35 W/m 14,8 C 16,7 C 27,4 km/h (4 Bft) 100 %
30.09.2017 17:40 18,4 C 18,4 C 18,9 C 81 % 1013,8 hPa 0,0 l/m 7,0 km/h (2 Bft) W 261 0 min 0,000 mm 30 W/m 15,1 C 18,1 C 22,5 km/h (4 Bft) 100 %
30.09.2017 17:50 18,0 C 18,0 C 18,4 C 83 % 1014,0 hPa 0,0 l/m 5,0 km/h (1 Bft) N-NW 327 0 min 0,000 mm 18 W/m 15,1 C 18,0 C 17,7 km/h (3 Bft) 100 %
30.09.2017 18:00 17,6 C 17,6 C 18,0 C 84 % 1014,0 hPa 0,0 l/m 7,7 km/h (2 Bft) W-NW 296 0 min 0,000 mm 28 W/m 14,9 C 17,0 C 24,1 km/h (4 Bft) 99 %
30.09.2017 18:10 17,0 C 17,0 C 17,6 C 81 % 1014,4 hPa 0,0 l/m 15,2 km/h (3 Bft) W-NW 295 0 min 0,051 mm 21 W/m 13,7 C 13,6 C 30,6 km/h (5 Bft) 100 %
30.09.2017 18:20 16,2 C 16,2 C 17,0 C 82 % 1014,4 hPa 0,0 l/m 15,1 km/h (3 Bft) W-NW 288 0 min 0,000 mm 9 W/m 13,1 C 12,6 C 29,0 km/h (5 Bft) 100 %
30.09.2017 18:30 15,4 C 15,4 C 16,2 C 83 % 1014,8 hPa 0,0 l/m 11,9 km/h (2 Bft) W-NW 289 0 min 0,000 mm 9 W/m 12,5 C 12,8 C 32,2 km/h (5 Bft) 99 %
30.09.2017 18:40 14,8 C 14,8 C 15,4 C 85 % 1015,2 hPa 0,0 l/m 10,0 km/h (2 Bft) W-NW 292 0 min 0,000 mm 0 W/m 12,3 C 12,9 C 25,7 km/h (4 Bft) 100 %
30.09.2017 18:50 14,3 C 14,3 C 14,8 C 87 % 1015,2 hPa 0,0 l/m 6,2 km/h (2 Bft) NW 315 0 min 0,000 mm 0 W/m 12,2 C 14,3 C 16,1 km/h (3 Bft) 100 %
30.09.2017 19:00 14,0 C 14,0 C 14,3 C 87 % 1015,2 hPa 0,0 l/m 4,1 km/h (1 Bft) NW 320 0 min 0,025 mm 0 W/m 11,9 C 14,0 C 9,7 km/h (2 Bft) 100 %
30.09.2017 19:10 13,8 C 13,8 C 14,0 C 88 % 1015,5 hPa 0,0 l/m 4,8 km/h (1 Bft) NW 318 0 min 0,000 mm 0 W/m 11,8 C 13,8 C 11,3 km/h (2 Bft) 100 %
30.09.2017 19:20 13,6 C 13,6 C 13,8 C 88 % 1015,5 hPa 0,0 l/m 4,4 km/h (1 Bft) W-NW 292 0 min 0,000 mm 0 W/m 11,6 C 13,6 C 14,5 km/h (3 Bft) 100 %
30.09.2017 19:30 13,5 C 13,5 C 13,6 C 88 % 1015,6 hPa 0,0 l/m 4,1 km/h (1 Bft) W-NW 300 0 min 0,000 mm 0 W/m 11,6 C 13,5 C 11,3 km/h (2 Bft) 100 %
30.09.2017 19:40 13,3 C 13,3 C 13,5 C 88 % 1016,0 hPa 0,0 l/m 3,5 km/h (1 Bft) W 276 0 min 0,000 mm 0 W/m 11,4 C 13,3 C 9,7 km/h (2 Bft) 100 %
30.09.2017 19:50 13,2 C 13,1 C 13,3 C 89 % 1016,1 hPa 0,0 l/m 2,1 km/h (1 Bft) W-NW 301 0 min 0,000 mm 0 W/m 11,4 C 13,2 C 8,0 km/h (2 Bft) 100 %
30.09.2017 20:00 13,1 C 13,1 C 13,2 C 89 % 1016,2 hPa 0,2 l/m 0,5 km/h (0 Bft) W-NW 284 0 min 0,000 mm 0 W/m 11,3 C 13,1 C 4,8 km/h (1 Bft) 100 %
30.09.2017 20:10 12,9 C 12,9 C 13,1 C 89 % 1016,3 hPa 0,2 l/m 0,1 km/h (0 Bft) W-NW 283 0 min 0,000 mm 0 W/m 11,1 C 12,9 C 3,2 km/h (1 Bft) 100 %
30.09.2017 20:20 12,9 C 12,9 C 12,9 C 89 % 1016,4 hPa 0,2 l/m 0,3 km/h (0 Bft) W-NW 288 0 min 0,000 mm 0 W/m 11,1 C 12,9 C 4,8 km/h (1 Bft) 100 %
30.09.2017 20:30 12,8 C 12,8 C 12,9 C 89 % 1016,7 hPa 0,2 l/m 0,1 km/h (0 Bft) W-SW 251 0 min 0,000 mm 0 W/m 11,0 C 12,8 C 4,8 km/h (1 Bft) 100 %
30.09.2017 20:40 12,6 C 12,6 C 12,8 C 89 % 1016,9 hPa 0,0 l/m 4,2 km/h (1 Bft) SW 227 0 min 0,000 mm 0 W/m 10,8 C 12,6 C 14,5 km/h (3 Bft) 100 %
30.09.2017 20:50 12,4 C 12,4 C 12,6 C 89 % 1017,3 hPa 0,4 l/m 3,5 km/h (1 Bft) W 275 0 min 0,000 mm 0 W/m 10,6 C 12,4 C 9,7 km/h (2 Bft) 100 %
30.09.2017 21:00 12,3 C 12,3 C 12,4 C 89 % 1017,4 hPa 0,2 l/m 3,5 km/h (1 Bft) W-SW 242 0 min 0,000 mm 0 W/m 10,5 C 12,3 C 11,3 km/h (2 Bft) 100 %
30.09.2017 21:10 12,2 C 12,2 C 12,3 C 89 % 1017,5 hPa 0,2 l/m 3,2 km/h (1 Bft) W 270 0 min 0,000 mm 0 W/m 10,4 C 12,2 C 9,7 km/h (2 Bft) 98 %
30.09.2017 21:20 12,2 C 12,2 C 12,2 C 89 % 1017,5 hPa 0,2 l/m 4,8 km/h (1 Bft) W 270 0 min 0,000 mm 0 W/m 10,4 C 12,2 C 16,1 km/h (3 Bft) 98 %
30.09.2017 21:30 12,1 C 12,1 C 12,2 C 89 % 1017,6 hPa 0,2 l/m 3,2 km/h (1 Bft) W 270 0 min 0,000 mm 0 W/m 10,3 C 12,1 C 14,5 km/h (3 Bft) 98 %
30.09.2017 21:40 12,1 C 12,1 C 12,1 C 89 % 1017,7 hPa 0,2 l/m 4,8 km/h (1 Bft) W 270 0 min 0,000 mm 0 W/m 10,3 C 12,1 C 22,5 km/h (4 Bft) 97 %
30.09.2017 21:50 12,0 C 12,0 C 12,1 C 89 % 1017,7 hPa 0,4 l/m 6,4 km/h (2 Bft) W 270 0 min 0,000 mm 0 W/m 10,2 C 12,0 C 16,1 km/h (3 Bft) 98 %
30.09.2017 22:00 11,9 C 11,9 C 12,0 C 89 % 1017,8 hPa 0,0 l/m 6,4 km/h (2 Bft) W-NW 292 0 min 0,000 mm 0 W/m 10,1 C 11,9 C 16,1 km/h (3 Bft) 97 %
30.09.2017 22:10 11,9 C 11,9 C 11,9 C 89 % 1018,0 hPa 0,2 l/m 4,8 km/h (1 Bft) W 270 0 min 0,000 mm 0 W/m 10,1 C 11,9 C 12,9 km/h (3 Bft) 97 %
30.09.2017 22:20 11,9 C 11,8 C 11,9 C 89 % 1018,0 hPa 0,2 l/m 1,6 km/h (1 Bft) W 270 0 min 0,000 mm 0 W/m 10,1 C 11,9 C 8,0 km/h (2 Bft) 98 %
30.09.2017 22:30 11,9 C 11,9 C 11,9 C 89 % 1018,1 hPa 0,2 l/m 1,6 km/h (1 Bft) W 270 0 min 0,000 mm 0 W/m 10,1 C 11,9 C 6,4 km/h (2 Bft) 98 %
30.09.2017 22:40 11,9 C 11,9 C 11,9 C 89 % 1018,3 hPa 0,2 l/m 3,2 km/h (1 Bft) W-SW 247 0 min 0,000 mm 0 W/m 10,1 C 11,9 C 9,7 km/h (2 Bft) 88 %
30.09.2017 22:50 11,9 C 11,9 C 11,9 C 89 % 1018,3 hPa 0,2 l/m 3,2 km/h (1 Bft) W-SW 247 0 min 0,000 mm 0 W/m 10,1 C 11,9 C 11,3 km/h (2 Bft) 98 %
30.09.2017 23:00 11,8 C 11,8 C 11,9 C 89 % 1018,3 hPa 0,0 l/m 3,2 km/h (1 Bft) W 270 0 min 0,000 mm 0 W/m 10,0 C 11,8 C 11,3 km/h (2 Bft) 98 %
30.09.2017 23:10 11,8 C 11,7 C 11,8 C 89 % 1018,3 hPa 0,2 l/m 4,8 km/h (1 Bft) W 270 0 min 0,000 mm 0 W/m 10,0 C 11,8 C 11,3 km/h (2 Bft) 97 %
30.09.2017 23:20 11,7 C 11,7 C 11,8 C 89 % 1018,4 hPa 0,0 l/m 3,2 km/h (1 Bft) W-SW 247 0 min 0,000 mm 0 W/m 9,9 C 11,7 C 14,5 km/h (3 Bft) 97 %
30.09.2017 23:30 11,7 C 11,7 C 11,7 C 89 % 1018,5 hPa 0,0 l/m 4,8 km/h (1 Bft) W 270 0 min 0,000 mm 0 W/m 9,9 C 11,7 C 16,1 km/h (3 Bft) 98 %
30.09.2017 23:40 11,7 C 11,6 C 11,7 C 89 % 1018,3 hPa 0,0 l/m 3,2 km/h (1 Bft) W-NW 292 0 min 0,000 mm 0 W/m 9,9 C 11,7 C 9,7 km/h (2 Bft) 98 %
30.09.2017 23:50 11,6 C 11,6 C 11,7 C 89 % 1018,4 hPa 0,0 l/m 3,2 km/h (1 Bft) W 270 0 min 0,000 mm 0 W/m 9,8 C 11,6 C 9,7 km/h (2 Bft) 97 %
_ Min-Zeit 23:40 23:40 23:30 15:10 15:20 - 00:00 - - - - - 23:50 23:50 00:10 22:40
Minimum _ 11,6 C 11,6 C 11,7 C 65 % 1013,2 hPa - 0,0 km/h (0 Bft) - - - - - 9,8 C 11,6 C 0,0 km/h (0 Bft) 88 %
_ Max-Zeit 15:00 15:10 15:00 05:00 00:00 20:50 18:10 - - 09:50 13:00 13:30 14:20 15:00 18:30 00:00
Maximum _ 22,7 C 22,7 C 22,7 C 90 % 1019,1 hPa 0,4 l/m 15,2 km/h
W-NW (3 Bft)
- - 10 min 0,330 mm 654 W/m 16,7 C 22,7 C 32,2 km/h
NW (5 Bft)
100 %
Durchschnitt _ 15,3 C 15,2 C 15,4 C 84 % 1016,0 hPa #3,8 l/m 2,6 km/h (1 Bft) W - #6:20 h #1,803 mm 272 W/m 12,5 C 15,1 C 7,6 km/h (2 Bft) 99 %
PRIVATE WETTERSTATION BILLIGHEIM-ALLFELD - www.neckar-odenwald-wetter.de - Holger Sonntag